sensor_id;sensor_type;location;lat;lon;timestamp;P1;durP1;ratioP1;P2;durP2;ratioP2
11767;SDS011;5941;57.652;12.514;2023-07-20T00:00:51;1003.37;;;927.60;;
11767;SDS011;5941;57.652;12.514;2023-07-20T00:03:18;1006.97;;;933.73;;
11767;SDS011;5941;57.652;12.514;2023-07-20T00:05:48;984.40;;;912.63;;
11767;SDS011;5941;57.652;12.514;2023-07-20T00:08:14;1005.47;;;931.63;;
11767;SDS011;5941;57.652;12.514;2023-07-20T00:10:40;989.33;;;917.20;;
11767;SDS011;5941;57.652;12.514;2023-07-20T00:13:06;965.70;;;898.37;;
11767;SDS011;5941;57.652;12.514;2023-07-20T00:15:32;971.60;;;900.90;;
11767;SDS011;5941;57.652;12.514;2023-07-20T00:17:58;955.73;;;889.00;;
11767;SDS011;5941;57.652;12.514;2023-07-20T00:20:24;958.90;;;891.47;;
11767;SDS011;5941;57.652;12.514;2023-07-20T00:22:50;993.23;;;921.90;;
11767;SDS011;5941;57.652;12.514;2023-07-20T00:25:17;989.33;;;919.27;;
11767;SDS011;5941;57.652;12.514;2023-07-20T00:27:43;975.30;;;904.67;;
11767;SDS011;5941;57.652;12.514;2023-07-20T00:30:09;986.67;;;913.47;;
11767;SDS011;5941;57.652;12.514;2023-07-20T00:32:35;1019.00;;;942.80;;
11767;SDS011;5941;57.652;12.514;2023-07-20T00:35:01;1999.90;;;999.90;;
11767;SDS011;5941;57.652;12.514;2023-07-20T00:37:27;1999.90;;;999.90;;
11767;SDS011;5941;57.652;12.514;2023-07-20T00:39:54;1999.90;;;999.90;;
11767;SDS011;5941;57.652;12.514;2023-07-20T00:42:20;1999.90;;;999.90;;
11767;SDS011;5941;57.652;12.514;2023-07-20T00:44:46;1999.90;;;999.90;;
11767;SDS011;5941;57.652;12.514;2023-07-20T00:47:12;1999.90;;;999.90;;
11767;SDS011;5941;57.652;12.514;2023-07-20T00:49:38;1999.90;;;999.90;;
11767;SDS011;5941;57.652;12.514;2023-07-20T00:52:06;1999.90;;;999.90;;
11767;SDS011;5941;57.652;12.514;2023-07-20T00:54:33;1999.90;;;999.90;;
11767;SDS011;5941;57.652;12.514;2023-07-20T00:57:00;1999.90;;;999.90;;
11767;SDS011;5941;57.652;12.514;2023-07-20T00:59:26;1999.90;;;999.90;;
11767;SDS011;5941;57.652;12.514;2023-07-20T01:01:53;1999.90;;;999.90;;
11767;SDS011;5941;57.652;12.514;2023-07-20T01:04:19;1999.90;;;999.90;;
11767;SDS011;5941;57.652;12.514;2023-07-20T01:06:53;1999.90;;;999.90;;
11767;SDS011;5941;57.652;12.514;2023-07-20T01:09:19;1999.90;;;999.90;;
11767;SDS011;5941;57.652;12.514;2023-07-20T01:12:07;1999.90;;;999.90;;
11767;SDS011;5941;57.652;12.514;2023-07-20T01:14:34;1999.90;;;999.90;;
11767;SDS011;5941;57.652;12.514;2023-07-20T01:17:01;1999.90;;;999.90;;
11767;SDS011;5941;57.652;12.514;2023-07-20T01:19:28;1999.90;;;999.90;;
11767;SDS011;5941;57.652;12.514;2023-07-20T01:21:59;1999.90;;;999.90;;
11767;SDS011;5941;57.652;12.514;2023-07-20T01:32:54;1999.90;;;999.90;;
11767;SDS011;5941;57.652;12.514;2023-07-20T01:35:21;1999.90;;;999.90;;
11767;SDS011;5941;57.652;12.514;2023-07-20T01:37:48;1999.90;;;999.90;;
11767;SDS011;5941;57.652;12.514;2023-07-20T01:40:15;1999.90;;;999.90;;
11767;SDS011;5941;57.652;12.514;2023-07-20T01:42:47;1999.90;;;999.90;;
11767;SDS011;5941;57.652;12.514;2023-07-20T01:45:13;1999.90;;;999.90;;
11767;SDS011;5941;57.652;12.514;2023-07-20T01:47:39;1999.90;;;999.90;;
11767;SDS011;5941;57.652;12.514;2023-07-20T01:50:06;1999.90;;;999.90;;
11767;SDS011;5941;57.652;12.514;2023-07-20T01:52:32;1999.90;;;999.90;;
11767;SDS011;5941;57.652;12.514;2023-07-20T01:54:58;1999.90;;;999.90;;
11767;SDS011;5941;57.652;12.514;2023-07-20T01:57:24;1999.90;;;999.90;;
11767;SDS011;5941;57.652;12.514;2023-07-20T01:59:50;1999.90;;;999.90;;
11767;SDS011;5941;57.652;12.514;2023-07-20T02:02:16;1999.90;;;999.90;;
11767;SDS011;5941;57.652;12.514;2023-07-20T02:04:43;1999.90;;;999.90;;
11767;SDS011;5941;57.652;12.514;2023-07-20T02:07:09;1999.90;;;999.90;;
11767;SDS011;5941;57.652;12.514;2023-07-20T02:09:35;1999.90;;;999.90;;
11767;SDS011;5941;57.652;12.514;2023-07-20T02:12:00;1999.90;;;999.90;;
11767;SDS011;5941;57.652;12.514;2023-07-20T02:14:26;1999.90;;;999.90;;
11767;SDS011;5941;57.652;12.514;2023-07-20T02:16:52;1999.90;;;999.90;;
11767;SDS011;5941;57.652;12.514;2023-07-20T02:19:24;1999.90;;;999.90;;
11767;SDS011;5941;57.652;12.514;2023-07-20T02:21:50;1999.90;;;999.90;;
11767;SDS011;5941;57.652;12.514;2023-07-20T02:24:16;1999.90;;;999.90;;
11767;SDS011;5941;57.652;12.514;2023-07-20T02:26:42;1999.90;;;999.90;;
11767;SDS011;5941;57.652;12.514;2023-07-20T02:29:08;1999.90;;;999.90;;
11767;SDS011;5941;57.652;12.514;2023-07-20T02:31:36;1999.90;;;999.90;;
11767;SDS011;5941;57.652;12.514;2023-07-20T02:34:04;1999.90;;;999.90;;
11767;SDS011;5941;57.652;12.514;2023-07-20T02:36:30;1999.90;;;999.90;;
11767;SDS011;5941;57.652;12.514;2023-07-20T02:38:57;1999.90;;;999.90;;
11767;SDS011;5941;57.652;12.514;2023-07-20T02:41:23;1999.90;;;999.90;;
11767;SDS011;5941;57.652;12.514;2023-07-20T02:43:49;1999.90;;;999.90;;
11767;SDS011;5941;57.652;12.514;2023-07-20T02:46:15;1999.90;;;999.90;;
11767;SDS011;5941;57.652;12.514;2023-07-20T02:48:41;1999.90;;;999.90;;
11767;SDS011;5941;57.652;12.514;2023-07-20T02:51:07;1999.90;;;999.90;;
11767;SDS011;5941;57.652;12.514;2023-07-20T02:53:34;1999.90;;;999.90;;
11767;SDS011;5941;57.652;12.514;2023-07-20T02:56:00;1999.90;;;999.90;;
11767;SDS011;5941;57.652;12.514;2023-07-20T02:58:26;1999.90;;;999.90;;
11767;SDS011;5941;57.652;12.514;2023-07-20T03:00:52;1999.90;;;999.90;;
11767;SDS011;5941;57.652;12.514;2023-07-20T03:03:18;1999.90;;;999.90;;
11767;SDS011;5941;57.652;12.514;2023-07-20T03:05:44;1999.90;;;999.90;;
11767;SDS011;5941;57.652;12.514;2023-07-20T03:08:10;1999.90;;;999.90;;
11767;SDS011;5941;57.652;12.514;2023-07-20T03:10:39;1999.90;;;999.90;;
11767;SDS011;5941;57.652;12.514;2023-07-20T03:13:06;1999.90;;;999.90;;
11767;SDS011;5941;57.652;12.514;2023-07-20T03:15:32;1999.90;;;999.90;;
11767;SDS011;5941;57.652;12.514;2023-07-20T03:17:58;1999.90;;;999.90;;
11767;SDS011;5941;57.652;12.514;2023-07-20T03:20:24;1999.90;;;999.90;;
11767;SDS011;5941;57.652;12.514;2023-07-20T03:22:50;1999.90;;;999.90;;
11767;SDS011;5941;57.652;12.514;2023-07-20T03:25:16;1999.90;;;999.90;;
11767;SDS011;5941;57.652;12.514;2023-07-20T03:27:42;1999.90;;;999.90;;
11767;SDS011;5941;57.652;12.514;2023-07-20T03:30:09;1999.90;;;999.90;;
11767;SDS011;5941;57.652;12.514;2023-07-20T03:32:36;1999.90;;;999.90;;
11767;SDS011;5941;57.652;12.514;2023-07-20T03:35:02;1999.90;;;999.90;;
11767;SDS011;5941;57.652;12.514;2023-07-20T03:37:28;1999.90;;;999.90;;
11767;SDS011;5941;57.652;12.514;2023-07-20T03:39:54;1999.90;;;999.90;;
11767;SDS011;5941;57.652;12.514;2023-07-20T03:42:20;1999.90;;;999.90;;
11767;SDS011;5941;57.652;12.514;2023-07-20T03:44:46;1999.90;;;999.90;;
11767;SDS011;5941;57.652;12.514;2023-07-20T03:47:12;1999.90;;;999.90;;
11767;SDS011;5941;57.652;12.514;2023-07-20T03:49:38;1999.90;;;999.90;;
11767;SDS011;5941;57.652;12.514;2023-07-20T03:52:04;1999.90;;;999.90;;
11767;SDS011;5941;57.652;12.514;2023-07-20T03:54:30;1999.90;;;999.90;;
11767;SDS011;5941;57.652;12.514;2023-07-20T03:56:56;1999.90;;;999.90;;
11767;SDS011;5941;57.652;12.514;2023-07-20T03:59:23;1999.90;;;999.90;;
11767;SDS011;5941;57.652;12.514;2023-07-20T04:01:49;1999.90;;;999.90;;
11767;SDS011;5941;57.652;12.514;2023-07-20T04:04:15;1999.90;;;999.90;;
11767;SDS011;5941;57.652;12.514;2023-07-20T04:06:42;1999.90;;;999.90;;
11767;SDS011;5941;57.652;12.514;2023-07-20T04:09:11;1999.90;;;999.90;;
11767;SDS011;5941;57.652;12.514;2023-07-20T04:11:37;1999.90;;;999.90;;
11767;SDS011;5941;57.652;12.514;2023-07-20T04:14:03;1999.90;;;999.90;;
11767;SDS011;5941;57.652;12.514;2023-07-20T04:16:29;1999.90;;;999.90;;
11767;SDS011;5941;57.652;12.514;2023-07-20T04:18:55;1999.90;;;999.90;;
11767;SDS011;5941;57.652;12.514;2023-07-20T04:21:21;1999.90;;;999.90;;
11767;SDS011;5941;57.652;12.514;2023-07-20T04:23:48;1999.90;;;999.90;;
11767;SDS011;5941;57.652;12.514;2023-07-20T04:26:13;1999.90;;;999.90;;
11767;SDS011;5941;57.652;12.514;2023-07-20T04:28:40;1999.90;;;999.90;;
11767;SDS011;5941;57.652;12.514;2023-07-20T04:31:11;1999.90;;;999.90;;
11767;SDS011;5941;57.652;12.514;2023-07-20T04:33:37;1999.90;;;999.90;;
11767;SDS011;5941;57.652;12.514;2023-07-20T04:36:03;1999.90;;;999.90;;
11767;SDS011;5941;57.652;12.514;2023-07-20T04:38:29;1999.90;;;999.90;;
11767;SDS011;5941;57.652;12.514;2023-07-20T04:40:55;1999.90;;;999.90;;
11767;SDS011;5941;57.652;12.514;2023-07-20T04:43:21;1999.90;;;999.90;;
11767;SDS011;5941;57.652;12.514;2023-07-20T04:45:47;1999.90;;;999.90;;
11767;SDS011;5941;57.652;12.514;2023-07-20T04:48:14;1999.90;;;999.90;;
11767;SDS011;5941;57.652;12.514;2023-07-20T04:50:42;1999.90;;;999.90;;
11767;SDS011;5941;57.652;12.514;2023-07-20T04:53:08;1999.90;;;999.90;;
11767;SDS011;5941;57.652;12.514;2023-07-20T04:55:38;1999.90;;;999.90;;
11767;SDS011;5941;57.652;12.514;2023-07-20T04:58:04;1999.90;;;999.90;;
11767;SDS011;5941;57.652;12.514;2023-07-20T05:00:31;1999.90;;;999.90;;
11767;SDS011;5941;57.652;12.514;2023-07-20T05:02:57;1999.90;;;999.90;;
11767;SDS011;5941;57.652;12.514;2023-07-20T05:05:23;1999.90;;;999.90;;
11767;SDS011;5941;57.652;12.514;2023-07-20T05:07:49;1999.90;;;999.90;;
11767;SDS011;5941;57.652;12.514;2023-07-20T05:10:15;1999.90;;;999.90;;
11767;SDS011;5941;57.652;12.514;2023-07-20T05:12:41;1999.90;;;999.90;;
11767;SDS011;5941;57.652;12.514;2023-07-20T05:15:07;1999.90;;;999.90;;
11767;SDS011;5941;57.652;12.514;2023-07-20T05:17:33;1999.90;;;999.90;;
11767;SDS011;5941;57.652;12.514;2023-07-20T05:19:59;1999.90;;;999.90;;
11767;SDS011;5941;57.652;12.514;2023-07-20T05:22:25;1999.90;;;999.90;;
11767;SDS011;5941;57.652;12.514;2023-07-20T05:24:51;1999.90;;;999.90;;
11767;SDS011;5941;57.652;12.514;2023-07-20T05:27:17;1999.90;;;999.90;;
11767;SDS011;5941;57.652;12.514;2023-07-20T05:29:44;1999.90;;;999.90;;
11767;SDS011;5941;57.652;12.514;2023-07-20T05:32:10;1999.90;;;999.90;;
11767;SDS011;5941;57.652;12.514;2023-07-20T05:34:36;1999.90;;;999.90;;
11767;SDS011;5941;57.652;12.514;2023-07-20T05:37:02;1999.90;;;999.90;;
11767;SDS011;5941;57.652;12.514;2023-07-20T05:39:28;1999.90;;;999.90;;
11767;SDS011;5941;57.652;12.514;2023-07-20T05:41:54;1999.90;;;999.90;;
11767;SDS011;5941;57.652;12.514;2023-07-20T05:44:20;1999.90;;;999.90;;
11767;SDS011;5941;57.652;12.514;2023-07-20T05:46:46;1999.90;;;999.90;;
11767;SDS011;5941;57.652;12.514;2023-07-20T05:49:12;1999.90;;;999.90;;
11767;SDS011;5941;57.652;12.514;2023-07-20T05:51:37;1999.90;;;999.90;;
11767;SDS011;5941;57.652;12.514;2023-07-20T05:54:03;1999.90;;;999.90;;
11767;SDS011;5941;57.652;12.514;2023-07-20T05:56:29;1999.90;;;999.90;;
11767;SDS011;5941;57.652;12.514;2023-07-20T05:58:55;1999.90;;;999.90;;
11767;SDS011;5941;57.652;12.514;2023-07-20T06:01:21;1999.90;;;999.90;;
11767;SDS011;5941;57.652;12.514;2023-07-20T06:03:47;1999.90;;;999.90;;
11767;SDS011;5941;57.652;12.514;2023-07-20T06:06:13;1643.10;;;955.03;;
11767;SDS011;5941;57.652;12.514;2023-07-20T06:08:40;1999.90;;;999.90;;
11767;SDS011;5941;57.652;12.514;2023-07-20T06:11:06;1999.90;;;999.90;;
11767;SDS011;5941;57.652;12.514;2023-07-20T06:13:31;1999.90;;;999.90;;
11767;SDS011;5941;57.652;12.514;2023-07-20T06:15:57;1999.90;;;999.90;;
11767;SDS011;5941;57.652;12.514;2023-07-20T06:18:23;1999.90;;;999.90;;
11767;SDS011;5941;57.652;12.514;2023-07-20T06:20:50;1999.90;;;999.90;;
11767;SDS011;5941;57.652;12.514;2023-07-20T06:23:16;1999.90;;;999.90;;
11767;SDS011;5941;57.652;12.514;2023-07-20T06:25:42;1999.90;;;999.90;;
11767;SDS011;5941;57.652;12.514;2023-07-20T06:28:08;1999.90;;;999.90;;
11767;SDS011;5941;57.652;12.514;2023-07-20T06:30:34;1999.90;;;999.90;;
11767;SDS011;5941;57.652;12.514;2023-07-20T06:33:00;1999.90;;;999.90;;
11767;SDS011;5941;57.652;12.514;2023-07-20T06:35:26;1999.90;;;999.90;;
11767;SDS011;5941;57.652;12.514;2023-07-20T06:37:52;1999.90;;;999.90;;
11767;SDS011;5941;57.652;12.514;2023-07-20T06:40:18;1999.90;;;999.90;;
11767;SDS011;5941;57.652;12.514;2023-07-20T06:42:44;1999.90;;;999.90;;
11767;SDS011;5941;57.652;12.514;2023-07-20T06:45:10;1999.90;;;999.90;;
11767;SDS011;5941;57.652;12.514;2023-07-20T06:47:39;1999.90;;;999.90;;
11767;SDS011;5941;57.652;12.514;2023-07-20T06:50:06;1999.90;;;999.90;;
11767;SDS011;5941;57.652;12.514;2023-07-20T06:52:32;1999.90;;;999.90;;
11767;SDS011;5941;57.652;12.514;2023-07-20T06:54:58;1999.90;;;999.90;;
11767;SDS011;5941;57.652;12.514;2023-07-20T06:57:24;1999.90;;;999.90;;
11767;SDS011;5941;57.652;12.514;2023-07-20T06:59:50;1999.90;;;999.90;;
11767;SDS011;5941;57.652;12.514;2023-07-20T07:02:16;1999.90;;;999.90;;
11767;SDS011;5941;57.652;12.514;2023-07-20T07:04:43;1999.90;;;999.90;;
11767;SDS011;5941;57.652;12.514;2023-07-20T07:07:09;1999.90;;;999.90;;
11767;SDS011;5941;57.652;12.514;2023-07-20T07:09:35;1999.90;;;999.90;;
11767;SDS011;5941;57.652;12.514;2023-07-20T07:12:01;1999.90;;;999.90;;
11767;SDS011;5941;57.652;12.514;2023-07-20T07:14:27;1999.90;;;999.90;;
11767;SDS011;5941;57.652;12.514;2023-07-20T07:16:53;1999.90;;;999.90;;
11767;SDS011;5941;57.652;12.514;2023-07-20T07:19:19;1999.90;;;999.90;;
11767;SDS011;5941;57.652;12.514;2023-07-20T07:21:45;1999.90;;;999.90;;
11767;SDS011;5941;57.652;12.514;2023-07-20T07:24:11;1999.90;;;999.90;;
11767;SDS011;5941;57.652;12.514;2023-07-20T07:26:37;1999.90;;;999.90;;
11767;SDS011;5941;57.652;12.514;2023-07-20T07:29:03;1999.90;;;999.90;;
11767;SDS011;5941;57.652;12.514;2023-07-20T07:31:30;1999.90;;;999.90;;
11767;SDS011;5941;57.652;12.514;2023-07-20T07:33:56;1999.90;;;999.90;;
11767;SDS011;5941;57.652;12.514;2023-07-20T07:36:22;1999.90;;;999.90;;
11767;SDS011;5941;57.652;12.514;2023-07-20T07:38:50;1999.90;;;999.90;;
11767;SDS011;5941;57.652;12.514;2023-07-20T07:41:16;1999.90;;;999.90;;
11767;SDS011;5941;57.652;12.514;2023-07-20T07:43:42;1999.90;;;999.90;;
11767;SDS011;5941;57.652;12.514;2023-07-20T07:46:08;1999.90;;;999.90;;
11767;SDS011;5941;57.652;12.514;2023-07-20T07:48:34;1999.90;;;999.90;;
11767;SDS011;5941;57.652;12.514;2023-07-20T07:51:00;1999.90;;;999.90;;
11767;SDS011;5941;57.652;12.514;2023-07-20T07:53:25;1999.90;;;999.90;;
11767;SDS011;5941;57.652;12.514;2023-07-20T07:55:52;1999.90;;;999.90;;
11767;SDS011;5941;57.652;12.514;2023-07-20T07:58:18;1999.90;;;999.90;;
11767;SDS011;5941;57.652;12.514;2023-07-20T08:00:44;1999.90;;;999.90;;
11767;SDS011;5941;57.652;12.514;2023-07-20T08:03:10;1999.90;;;999.90;;
11767;SDS011;5941;57.652;12.514;2023-07-20T08:05:36;1999.90;;;999.90;;
11767;SDS011;5941;57.652;12.514;2023-07-20T08:08:02;1999.90;;;999.90;;
11767;SDS011;5941;57.652;12.514;2023-07-20T08:10:31;1999.90;;;999.90;;
11767;SDS011;5941;57.652;12.514;2023-07-20T08:12:57;1999.90;;;999.90;;
11767;SDS011;5941;57.652;12.514;2023-07-20T08:15:23;1999.90;;;999.90;;
11767;SDS011;5941;57.652;12.514;2023-07-20T08:17:49;1999.90;;;999.90;;
11767;SDS011;5941;57.652;12.514;2023-07-20T08:20:16;1999.90;;;999.90;;
11767;SDS011;5941;57.652;12.514;2023-07-20T08:22:43;1999.90;;;999.90;;
11767;SDS011;5941;57.652;12.514;2023-07-20T08:25:09;1999.90;;;999.90;;
11767;SDS011;5941;57.652;12.514;2023-07-20T08:27:36;1999.90;;;999.90;;
11767;SDS011;5941;57.652;12.514;2023-07-20T08:30:03;1999.90;;;999.90;;
11767;SDS011;5941;57.652;12.514;2023-07-20T08:32:33;1999.90;;;999.90;;
11767;SDS011;5941;57.652;12.514;2023-07-20T08:34:59;1999.90;;;999.90;;
11767;SDS011;5941;57.652;12.514;2023-07-20T08:37:24;1999.90;;;999.90;;
11767;SDS011;5941;57.652;12.514;2023-07-20T08:39:51;1999.90;;;999.90;;
11767;SDS011;5941;57.652;12.514;2023-07-20T08:42:17;1999.90;;;999.90;;
11767;SDS011;5941;57.652;12.514;2023-07-20T08:44:43;1999.90;;;999.90;;
11767;SDS011;5941;57.652;12.514;2023-07-20T08:47:09;1999.90;;;999.90;;
11767;SDS011;5941;57.652;12.514;2023-07-20T08:49:36;1999.90;;;999.90;;
11767;SDS011;5941;57.652;12.514;2023-07-20T08:52:04;1999.90;;;999.90;;
11767;SDS011;5941;57.652;12.514;2023-07-20T08:54:30;1999.90;;;999.90;;
11767;SDS011;5941;57.652;12.514;2023-07-20T08:56:58;1999.90;;;999.90;;
11767;SDS011;5941;57.652;12.514;2023-07-20T08:59:27;1999.90;;;999.90;;
11767;SDS011;5941;57.652;12.514;2023-07-20T09:01:53;1999.90;;;999.90;;
11767;SDS011;5941;57.652;12.514;2023-07-20T09:04:20;1999.90;;;999.90;;
11767;SDS011;5941;57.652;12.514;2023-07-20T09:06:48;1999.90;;;999.90;;
11767;SDS011;5941;57.652;12.514;2023-07-20T09:09:14;1999.90;;;999.90;;
11767;SDS011;5941;57.652;12.514;2023-07-20T09:11:40;1999.90;;;999.90;;
11767;SDS011;5941;57.652;12.514;2023-07-20T09:14:07;1999.90;;;999.90;;
11767;SDS011;5941;57.652;12.514;2023-07-20T09:16:46;1999.90;;;999.90;;
11767;SDS011;5941;57.652;12.514;2023-07-20T09:19:14;1999.90;;;999.90;;
11767;SDS011;5941;57.652;12.514;2023-07-20T09:21:41;1999.90;;;999.90;;
11767;SDS011;5941;57.652;12.514;2023-07-20T09:24:07;1999.90;;;999.90;;
11767;SDS011;5941;57.652;12.514;2023-07-20T09:26:32;1999.90;;;999.90;;
11767;SDS011;5941;57.652;12.514;2023-07-20T09:29:06;1999.90;;;999.90;;
11767;SDS011;5941;57.652;12.514;2023-07-20T09:31:34;1999.90;;;999.90;;
11767;SDS011;5941;57.652;12.514;2023-07-20T09:34:00;1999.90;;;999.90;;
11767;SDS011;5941;57.652;12.514;2023-07-20T09:36:26;1999.90;;;999.90;;
11767;SDS011;5941;57.652;12.514;2023-07-20T09:38:52;1999.90;;;999.90;;
11767;SDS011;5941;57.652;12.514;2023-07-20T09:41:20;1999.90;;;999.90;;
11767;SDS011;5941;57.652;12.514;2023-07-20T09:43:46;1999.90;;;999.90;;
11767;SDS011;5941;57.652;12.514;2023-07-20T09:46:12;1999.90;;;999.90;;
11767;SDS011;5941;57.652;12.514;2023-07-20T09:48:39;1999.90;;;999.90;;
11767;SDS011;5941;57.652;12.514;2023-07-20T09:51:06;1999.90;;;999.90;;
11767;SDS011;5941;57.652;12.514;2023-07-20T09:53:33;1999.90;;;999.90;;
11767;SDS011;5941;57.652;12.514;2023-07-20T09:55:59;993.23;;;921.93;;
11767;SDS011;5941;57.652;12.514;2023-07-20T09:58:26;1999.90;;;999.90;;
11767;SDS011;5941;57.652;12.514;2023-07-20T10:00:52;881.25;;;826.15;;
11767;SDS011;5941;57.652;12.514;2023-07-20T10:03:22;970.13;;;900.65;;
11767;SDS011;5941;57.652;12.514;2023-07-20T10:05:53;1242.57;;;938.15;;
11767;SDS011;5941;57.652;12.514;2023-07-20T10:08:20;912.38;;;851.85;;
11767;SDS011;5941;57.652;12.514;2023-07-20T10:10:49;905.63;;;847.50;;
11767;SDS011;5941;57.652;12.514;2023-07-20T10:13:18;870.63;;;817.08;;
11767;SDS011;5941;57.652;12.514;2023-07-20T10:15:46;916.25;;;855.60;;
11767;SDS011;5941;57.652;12.514;2023-07-20T10:18:14;969.65;;;901.42;;
11767;SDS011;5941;57.652;12.514;2023-07-20T10:20:43;995.90;;;924.92;;
11767;SDS011;5941;57.652;12.514;2023-07-20T10:23:10;1026.47;;;947.63;;
11767;SDS011;5941;57.652;12.514;2023-07-20T10:25:37;896.35;;;838.97;;
11767;SDS011;5941;57.652;12.514;2023-07-20T10:28:05;867.88;;;813.72;;
11767;SDS011;5941;57.652;12.514;2023-07-20T10:30:32;898.72;;;841.28;;
11767;SDS011;5941;57.652;12.514;2023-07-20T10:32:58;867.63;;;813.58;;
11767;SDS011;5941;57.652;12.514;2023-07-20T10:35:28;959.15;;;892.03;;
11767;SDS011;5941;57.652;12.514;2023-07-20T10:37:54;1021.42;;;943.63;;
11767;SDS011;5941;57.652;12.514;2023-07-20T10:40:24;961.78;;;894.42;;
11767;SDS011;5941;57.652;12.514;2023-07-20T10:42:50;918.63;;;855.83;;
11767;SDS011;5941;57.652;12.514;2023-07-20T10:45:19;894.88;;;837.33;;
11767;SDS011;5941;57.652;12.514;2023-07-20T10:47:45;883.95;;;828.13;;
11767;SDS011;5941;57.652;12.514;2023-07-20T10:50:11;800.97;;;754.22;;
11767;SDS011;5941;57.652;12.514;2023-07-20T10:52:39;883.20;;;826.50;;
11767;SDS011;5941;57.652;12.514;2023-07-20T10:55:15;666.80;;;633.30;;
11767;SDS011;5941;57.652;12.514;2023-07-20T10:57:41;510.30;;;488.10;;
11767;SDS011;5941;57.652;12.514;2023-07-20T11:00:11;737.88;;;697.63;;
11767;SDS011;5941;57.652;12.514;2023-07-20T11:02:47;722.63;;;685.05;;
11767;SDS011;5941;57.652;12.514;2023-07-20T11:05:32;812.60;;;764.30;;
11767;SDS011;5941;57.652;12.514;2023-07-20T11:08:00;778.03;;;733.53;;
11767;SDS011;5941;57.652;12.514;2023-07-20T11:10:26;875.38;;;818.90;;
11767;SDS011;5941;57.652;12.514;2023-07-20T11:18:12;889.58;;;832.17;;
11767;SDS011;5941;57.652;12.514;2023-07-20T11:20:38;837.47;;;787.00;;
11767;SDS011;5941;57.652;12.514;2023-07-20T11:23:04;734.90;;;695.50;;
11767;SDS011;5941;57.652;12.514;2023-07-20T11:25:40;817.08;;;768.78;;
11767;SDS011;5941;57.652;12.514;2023-07-20T11:28:06;674.03;;;639.35;;
11767;SDS011;5941;57.652;12.514;2023-07-20T11:30:33;716.78;;;678.22;;
11767;SDS011;5941;57.652;12.514;2023-07-20T11:32:59;477.70;;;457.23;;
11767;SDS011;5941;57.652;12.514;2023-07-20T11:35:25;821.88;;;772.58;;
11767;SDS011;5941;57.652;12.514;2023-07-20T11:37:51;889.30;;;832.10;;
11767;SDS011;5941;57.652;12.514;2023-07-20T11:40:17;906.05;;;846.90;;
11767;SDS011;5941;57.652;12.514;2023-07-20T11:42:43;917.53;;;856.90;;
11767;SDS011;5941;57.652;12.514;2023-07-20T11:45:11;926.22;;;863.72;;
11767;SDS011;5941;57.652;12.514;2023-07-20T11:47:40;812.45;;;764.60;;
11767;SDS011;5941;57.652;12.514;2023-07-20T11:50:09;557.05;;;531.47;;
11767;SDS011;5941;57.652;12.514;2023-07-20T11:52:36;701.40;;;664.42;;
11767;SDS011;5941;57.652;12.514;2023-07-20T11:55:02;413.30;;;396.63;;
11767;SDS011;5941;57.652;12.514;2023-07-20T11:57:28;636.28;;;602.92;;
11767;SDS011;5941;57.652;12.514;2023-07-20T11:59:58;466.10;;;445.80;;
11767;SDS011;5941;57.652;12.514;2023-07-20T12:02:28;807.90;;;759.50;;
11767;SDS011;5941;57.652;12.514;2023-07-20T12:04:55;761.72;;;718.55;;
11767;SDS011;5941;57.652;12.514;2023-07-20T12:07:21;390.55;;;374.85;;
11767;SDS011;5941;57.652;12.514;2023-07-20T12:10:05;506.95;;;484.60;;
11767;SDS011;5941;57.652;12.514;2023-07-20T12:12:32;675.50;;;639.50;;
11767;SDS011;5941;57.652;12.514;2023-07-20T12:15:14;524.05;;;500.35;;
11767;SDS011;5941;57.652;12.514;2023-07-20T12:17:44;636.35;;;602.80;;
11767;SDS011;5941;57.652;12.514;2023-07-20T12:20:11;624.22;;;593.15;;
11767;SDS011;5941;57.652;12.514;2023-07-20T12:22:40;617.22;;;587.78;;
11767;SDS011;5941;57.652;12.514;2023-07-20T12:25:06;533.25;;;509.58;;
11767;SDS011;5941;57.652;12.514;2023-07-20T12:27:35;811.05;;;762.40;;
11767;SDS011;5941;57.652;12.514;2023-07-20T12:30:01;832.63;;;782.70;;
11767;SDS011;5941;57.652;12.514;2023-07-20T12:32:29;675.45;;;640.63;;
11767;SDS011;5941;57.652;12.514;2023-07-20T12:34:55;453.65;;;434.90;;
11767;SDS011;5941;57.652;12.514;2023-07-20T12:37:21;643.30;;;609.40;;
11767;SDS011;5941;57.652;12.514;2023-07-20T12:39:47;641.95;;;610.05;;
11767;SDS011;5941;57.652;12.514;2023-07-20T12:42:13;466.13;;;446.75;;
11767;SDS011;5941;57.652;12.514;2023-07-20T12:44:40;447.83;;;429.52;;
11767;SDS011;5941;57.652;12.514;2023-07-20T12:47:06;622.38;;;591.92;;
11767;SDS011;5941;57.652;12.514;2023-07-20T12:49:32;474.17;;;454.42;;
11767;SDS011;5941;57.652;12.514;2023-07-20T12:51:58;471.35;;;451.65;;
11767;SDS011;5941;57.652;12.514;2023-07-20T12:54:24;555.80;;;530.28;;
11767;SDS011;5941;57.652;12.514;2023-07-20T12:56:50;649.20;;;617.22;;
11767;SDS011;5941;57.652;12.514;2023-07-20T12:59:16;906.97;;;846.50;;
11767;SDS011;5941;57.652;12.514;2023-07-20T13:01:42;852.33;;;800.20;;
11767;SDS011;5941;57.652;12.514;2023-07-20T13:04:09;475.63;;;454.98;;
11767;SDS011;5941;57.652;12.514;2023-07-20T13:06:35;417.55;;;400.58;;
11767;SDS011;5941;57.652;12.514;2023-07-20T13:09:01;595.25;;;567.47;;
11767;SDS011;5941;57.652;12.514;2023-07-20T13:11:28;770.20;;;727.08;;
11767;SDS011;5941;57.652;12.514;2023-07-20T13:13:54;889.90;;;833.05;;
11767;SDS011;5941;57.652;12.514;2023-07-20T13:16:20;865.38;;;811.63;;
11767;SDS011;5941;57.652;12.514;2023-07-20T13:18:46;569.20;;;543.10;;
11767;SDS011;5941;57.652;12.514;2023-07-20T13:21:12;585.38;;;558.42;;
11767;SDS011;5941;57.652;12.514;2023-07-20T13:23:38;793.67;;;747.47;;
11767;SDS011;5941;57.652;12.514;2023-07-20T13:26:04;800.88;;;754.08;;
11767;SDS011;5941;57.652;12.514;2023-07-20T13:28:30;700.05;;;663.08;;
11767;SDS011;5941;57.652;12.514;2023-07-20T13:30:56;645.72;;;614.60;;
11767;SDS011;5941;57.652;12.514;2023-07-20T13:33:22;749.03;;;708.00;;
11767;SDS011;5941;57.652;12.514;2023-07-20T13:35:48;744.03;;;702.88;;
11767;SDS011;5941;57.652;12.514;2023-07-20T13:38:14;470.80;;;450.25;;
11767;SDS011;5941;57.652;12.514;2023-07-20T13:40:40;656.35;;;623.95;;
11767;SDS011;5941;57.652;12.514;2023-07-20T13:43:07;729.80;;;690.55;;
11767;SDS011;5941;57.652;12.514;2023-07-20T13:45:33;762.75;;;719.80;;
11767;SDS011;5941;57.652;12.514;2023-07-20T13:47:59;661.63;;;628.25;;
11767;SDS011;5941;57.652;12.514;2023-07-20T13:50:25;400.95;;;384.75;;
11767;SDS011;5941;57.652;12.514;2023-07-20T13:52:51;410.27;;;393.73;;
11767;SDS011;5941;57.652;12.514;2023-07-20T13:55:17;469.85;;;450.20;;
11767;SDS011;5941;57.652;12.514;2023-07-20T13:57:43;496.58;;;474.52;;
11767;SDS011;5941;57.652;12.514;2023-07-20T14:00:10;444.00;;;425.63;;